sensor_id;sensor_type;location;lat;lon;timestamp;P1;durP1;ratioP1;P2;durP2;ratioP2
9102;SDS011;4587;51.434;6.788;2023-09-07T00:01:05;11.77;;;4.13;;
9102;SDS011;4587;51.434;6.788;2023-09-07T00:03:31;8.10;;;3.90;;
9102;SDS011;4587;51.434;6.788;2023-09-07T00:05:57;7.13;;;3.70;;
9102;SDS011;4587;51.434;6.788;2023-09-07T00:08:22;5.73;;;3.67;;
9102;SDS011;4587;51.434;6.788;2023-09-07T00:10:50;4.40;;;3.60;;
9102;SDS011;4587;51.434;6.788;2023-09-07T00:13:16;4.97;;;3.70;;
9102;SDS011;4587;51.434;6.788;2023-09-07T00:15:42;5.17;;;3.90;;
9102;SDS011;4587;51.434;6.788;2023-09-07T00:18:07;4.37;;;3.37;;
9102;SDS011;4587;51.434;6.788;2023-09-07T00:20:33;7.60;;;3.60;;
9102;SDS011;4587;51.434;6.788;2023-09-07T00:22:59;5.37;;;3.37;;
9102;SDS011;4587;51.434;6.788;2023-09-07T00:25:28;8.77;;;3.50;;
9102;SDS011;4587;51.434;6.788;2023-09-07T00:27:54;5.77;;;3.37;;
9102;SDS011;4587;51.434;6.788;2023-09-07T00:30:19;4.83;;;3.37;;
9102;SDS011;4587;51.434;6.788;2023-09-07T00:32:45;4.10;;;3.47;;
9102;SDS011;4587;51.434;6.788;2023-09-07T00:35:10;4.50;;;3.50;;
9102;SDS011;4587;51.434;6.788;2023-09-07T00:37:36;3.43;;;3.07;;
9102;SDS011;4587;51.434;6.788;2023-09-07T00:40:02;5.10;;;2.90;;
9102;SDS011;4587;51.434;6.788;2023-09-07T00:42:28;3.27;;;2.97;;
9102;SDS011;4587;51.434;6.788;2023-09-07T00:44:54;3.27;;;2.80;;
9102;SDS011;4587;51.434;6.788;2023-09-07T00:47:20;5.27;;;2.90;;
9102;SDS011;4587;51.434;6.788;2023-09-07T00:49:46;5.33;;;3.00;;
9102;SDS011;4587;51.434;6.788;2023-09-07T00:52:12;3.17;;;2.93;;
9102;SDS011;4587;51.434;6.788;2023-09-07T00:54:37;4.63;;;3.00;;
9102;SDS011;4587;51.434;6.788;2023-09-07T00:57:05;3.50;;;2.90;;
9102;SDS011;4587;51.434;6.788;2023-09-07T00:59:34;5.10;;;3.10;;
9102;SDS011;4587;51.434;6.788;2023-09-07T01:02:00;4.73;;;2.87;;
9102;SDS011;4587;51.434;6.788;2023-09-07T01:04:25;3.90;;;2.40;;
9102;SDS011;4587;51.434;6.788;2023-09-07T01:07:02;8.00;;;2.97;;
9102;SDS011;4587;51.434;6.788;2023-09-07T01:09:35;4.17;;;2.80;;
9102;SDS011;4587;51.434;6.788;2023-09-07T01:12:05;3.70;;;2.93;;
9102;SDS011;4587;51.434;6.788;2023-09-07T01:14:35;3.77;;;3.20;;
9102;SDS011;4587;51.434;6.788;2023-09-07T01:17:01;4.37;;;2.90;;
9102;SDS011;4587;51.434;6.788;2023-09-07T01:19:27;3.53;;;3.10;;
9102;SDS011;4587;51.434;6.788;2023-09-07T01:21:53;3.43;;;2.90;;
9102;SDS011;4587;51.434;6.788;2023-09-07T01:24:19;4.37;;;2.80;;
9102;SDS011;4587;51.434;6.788;2023-09-07T01:26:47;5.40;;;2.93;;
9102;SDS011;4587;51.434;6.788;2023-09-07T01:29:14;4.60;;;3.20;;
9102;SDS011;4587;51.434;6.788;2023-09-07T01:31:41;5.53;;;3.23;;
9102;SDS011;4587;51.434;6.788;2023-09-07T01:34:08;4.47;;;2.97;;
9102;SDS011;4587;51.434;6.788;2023-09-07T01:36:34;3.57;;;2.80;;
9102;SDS011;4587;51.434;6.788;2023-09-07T01:39:00;4.70;;;3.50;;
9102;SDS011;4587;51.434;6.788;2023-09-07T01:41:26;4.93;;;3.20;;
9102;SDS011;4587;51.434;6.788;2023-09-07T01:43:51;12.83;;;3.37;;
9102;SDS011;4587;51.434;6.788;2023-09-07T01:46:17;8.40;;;3.20;;
9102;SDS011;4587;51.434;6.788;2023-09-07T01:48:43;4.47;;;3.00;;
9102;SDS011;4587;51.434;6.788;2023-09-07T01:51:08;3.80;;;2.90;;
9102;SDS011;4587;51.434;6.788;2023-09-07T01:53:34;4.60;;;2.77;;
9102;SDS011;4587;51.434;6.788;2023-09-07T01:56:00;5.83;;;3.43;;
9102;SDS011;4587;51.434;6.788;2023-09-07T01:58:25;7.40;;;3.10;;
9102;SDS011;4587;51.434;6.788;2023-09-07T02:00:57;5.40;;;3.10;;
9102;SDS011;4587;51.434;6.788;2023-09-07T02:03:23;6.30;;;3.23;;
9102;SDS011;4587;51.434;6.788;2023-09-07T02:05:49;5.23;;;3.20;;
9102;SDS011;4587;51.434;6.788;2023-09-07T02:08:15;3.53;;;3.13;;
9102;SDS011;4587;51.434;6.788;2023-09-07T02:10:40;6.17;;;3.10;;
9102;SDS011;4587;51.434;6.788;2023-09-07T02:13:06;5.00;;;3.30;;
9102;SDS011;4587;51.434;6.788;2023-09-07T02:15:31;4.70;;;3.17;;
9102;SDS011;4587;51.434;6.788;2023-09-07T02:17:58;8.77;;;3.40;;
9102;SDS011;4587;51.434;6.788;2023-09-07T02:20:23;4.10;;;3.03;;
9102;SDS011;4587;51.434;6.788;2023-09-07T02:22:49;3.37;;;3.07;;
9102;SDS011;4587;51.434;6.788;2023-09-07T02:25:15;3.53;;;3.20;;
9102;SDS011;4587;51.434;6.788;2023-09-07T02:27:40;3.90;;;3.20;;
9102;SDS011;4587;51.434;6.788;2023-09-07T02:30:06;4.50;;;3.10;;
9102;SDS011;4587;51.434;6.788;2023-09-07T02:32:32;4.70;;;3.10;;
9102;SDS011;4587;51.434;6.788;2023-09-07T02:34:58;4.47;;;3.40;;
9102;SDS011;4587;51.434;6.788;2023-09-07T02:37:23;5.70;;;3.20;;
9102;SDS011;4587;51.434;6.788;2023-09-07T02:39:49;4.13;;;3.37;;
9102;SDS011;4587;51.434;6.788;2023-09-07T02:42:15;4.60;;;3.17;;
9102;SDS011;4587;51.434;6.788;2023-09-07T02:44:41;3.43;;;3.10;;
9102;SDS011;4587;51.434;6.788;2023-09-07T02:47:06;4.40;;;3.17;;
9102;SDS011;4587;51.434;6.788;2023-09-07T02:49:32;4.77;;;3.23;;
9102;SDS011;4587;51.434;6.788;2023-09-07T02:51:57;6.60;;;3.10;;
9102;SDS011;4587;51.434;6.788;2023-09-07T02:54:23;8.77;;;3.77;;
9102;SDS011;4587;51.434;6.788;2023-09-07T02:56:49;4.37;;;3.10;;
9102;SDS011;4587;51.434;6.788;2023-09-07T02:59:14;4.40;;;3.23;;
9102;SDS011;4587;51.434;6.788;2023-09-07T03:01:40;4.20;;;3.40;;
9102;SDS011;4587;51.434;6.788;2023-09-07T03:04:05;8.43;;;3.57;;
9102;SDS011;4587;51.434;6.788;2023-09-07T03:06:32;4.17;;;3.17;;
9102;SDS011;4587;51.434;6.788;2023-09-07T03:08:57;5.23;;;3.50;;
9102;SDS011;4587;51.434;6.788;2023-09-07T03:11:23;4.67;;;3.00;;
9102;SDS011;4587;51.434;6.788;2023-09-07T03:13:49;6.87;;;3.53;;
9102;SDS011;4587;51.434;6.788;2023-09-07T03:16:14;6.23;;;3.30;;
9102;SDS011;4587;51.434;6.788;2023-09-07T03:18:40;6.30;;;3.47;;
9102;SDS011;4587;51.434;6.788;2023-09-07T03:21:06;6.20;;;3.33;;
9102;SDS011;4587;51.434;6.788;2023-09-07T03:23:32;5.23;;;3.43;;
9102;SDS011;4587;51.434;6.788;2023-09-07T03:25:58;8.00;;;3.43;;
9102;SDS011;4587;51.434;6.788;2023-09-07T03:28:24;7.70;;;3.63;;
9102;SDS011;4587;51.434;6.788;2023-09-07T03:30:50;4.07;;;3.60;;
9102;SDS011;4587;51.434;6.788;2023-09-07T03:33:16;5.63;;;3.70;;
9102;SDS011;4587;51.434;6.788;2023-09-07T03:35:42;5.93;;;3.80;;
9102;SDS011;4587;51.434;6.788;2023-09-07T03:38:07;5.67;;;3.60;;
9102;SDS011;4587;51.434;6.788;2023-09-07T03:40:33;4.10;;;3.70;;
9102;SDS011;4587;51.434;6.788;2023-09-07T03:42:59;5.73;;;3.80;;
9102;SDS011;4587;51.434;6.788;2023-09-07T03:45:24;4.83;;;3.30;;
9102;SDS011;4587;51.434;6.788;2023-09-07T03:47:50;5.40;;;3.20;;
9102;SDS011;4587;51.434;6.788;2023-09-07T03:50:15;5.10;;;4.00;;
9102;SDS011;4587;51.434;6.788;2023-09-07T03:52:41;5.63;;;3.67;;
9102;SDS011;4587;51.434;6.788;2023-09-07T03:55:07;5.73;;;3.60;;
9102;SDS011;4587;51.434;6.788;2023-09-07T03:57:32;9.23;;;3.77;;
9102;SDS011;4587;51.434;6.788;2023-09-07T03:59:58;5.40;;;3.80;;
9102;SDS011;4587;51.434;6.788;2023-09-07T04:02:25;9.10;;;3.97;;
9102;SDS011;4587;51.434;6.788;2023-09-07T04:04:51;5.30;;;3.60;;
9102;SDS011;4587;51.434;6.788;2023-09-07T04:07:18;8.93;;;4.00;;
9102;SDS011;4587;51.434;6.788;2023-09-07T04:09:44;4.83;;;4.20;;
9102;SDS011;4587;51.434;6.788;2023-09-07T04:12:10;4.90;;;3.43;;
9102;SDS011;4587;51.434;6.788;2023-09-07T04:14:35;4.60;;;3.77;;
9102;SDS011;4587;51.434;6.788;2023-09-07T04:17:01;7.37;;;4.23;;
9102;SDS011;4587;51.434;6.788;2023-09-07T04:19:27;5.10;;;4.17;;
9102;SDS011;4587;51.434;6.788;2023-09-07T04:21:53;5.73;;;4.20;;
9102;SDS011;4587;51.434;6.788;2023-09-07T04:24:18;5.83;;;4.10;;
9102;SDS011;4587;51.434;6.788;2023-09-07T04:26:44;5.00;;;3.33;;
9102;SDS011;4587;51.434;6.788;2023-09-07T04:29:10;8.43;;;4.33;;
9102;SDS011;4587;51.434;6.788;2023-09-07T04:31:37;7.50;;;4.40;;
9102;SDS011;4587;51.434;6.788;2023-09-07T04:34:03;6.30;;;4.50;;
9102;SDS011;4587;51.434;6.788;2023-09-07T04:36:29;4.67;;;4.03;;
9102;SDS011;4587;51.434;6.788;2023-09-07T04:38:54;8.60;;;4.23;;
9102;SDS011;4587;51.434;6.788;2023-09-07T04:41:20;6.37;;;4.27;;
9102;SDS011;4587;51.434;6.788;2023-09-07T04:43:45;5.17;;;4.63;;
9102;SDS011;4587;51.434;6.788;2023-09-07T04:46:12;6.83;;;4.87;;
9102;SDS011;4587;51.434;6.788;2023-09-07T04:48:38;8.47;;;4.37;;
9102;SDS011;4587;51.434;6.788;2023-09-07T04:51:06;5.47;;;4.37;;
9102;SDS011;4587;51.434;6.788;2023-09-07T04:53:34;5.50;;;4.60;;
9102;SDS011;4587;51.434;6.788;2023-09-07T04:56:03;6.57;;;4.10;;
9102;SDS011;4587;51.434;6.788;2023-09-07T04:58:30;9.27;;;4.30;;
9102;SDS011;4587;51.434;6.788;2023-09-07T05:01:05;6.33;;;4.43;;
9102;SDS011;4587;51.434;6.788;2023-09-07T05:03:33;9.10;;;4.80;;
9102;SDS011;4587;51.434;6.788;2023-09-07T05:05:59;6.83;;;4.17;;
9102;SDS011;4587;51.434;6.788;2023-09-07T05:08:25;8.97;;;4.57;;
9102;SDS011;4587;51.434;6.788;2023-09-07T05:10:58;12.43;;;4.47;;
9102;SDS011;4587;51.434;6.788;2023-09-07T05:13:25;8.63;;;4.87;;
9102;SDS011;4587;51.434;6.788;2023-09-07T05:15:51;7.13;;;4.73;;
9102;SDS011;4587;51.434;6.788;2023-09-07T05:18:18;10.10;;;4.83;;
9102;SDS011;4587;51.434;6.788;2023-09-07T05:20:44;10.17;;;4.80;;
9102;SDS011;4587;51.434;6.788;2023-09-07T05:23:17;9.77;;;4.97;;
9102;SDS011;4587;51.434;6.788;2023-09-07T05:25:44;6.73;;;4.53;;
9102;SDS011;4587;51.434;6.788;2023-09-07T05:28:11;7.97;;;4.83;;
9102;SDS011;4587;51.434;6.788;2023-09-07T05:30:38;6.67;;;5.17;;
9102;SDS011;4587;51.434;6.788;2023-09-07T05:33:04;7.43;;;4.57;;
9102;SDS011;4587;51.434;6.788;2023-09-07T05:35:29;7.87;;;5.30;;
9102;SDS011;4587;51.434;6.788;2023-09-07T05:37:57;7.67;;;4.87;;
9102;SDS011;4587;51.434;6.788;2023-09-07T05:40:23;7.63;;;5.03;;
9102;SDS011;4587;51.434;6.788;2023-09-07T05:42:49;9.83;;;5.20;;
9102;SDS011;4587;51.434;6.788;2023-09-07T05:45:15;6.53;;;4.37;;
9102;SDS011;4587;51.434;6.788;2023-09-07T05:47:40;6.60;;;4.70;;
9102;SDS011;4587;51.434;6.788;2023-09-07T05:50:06;9.10;;;4.73;;
9102;SDS011;4587;51.434;6.788;2023-09-07T05:52:32;8.87;;;4.50;;
9102;SDS011;4587;51.434;6.788;2023-09-07T05:54:57;6.57;;;4.30;;
9102;SDS011;4587;51.434;6.788;2023-09-07T05:57:23;6.40;;;4.73;;
9102;SDS011;4587;51.434;6.788;2023-09-07T05:59:49;6.77;;;4.27;;
9102;SDS011;4587;51.434;6.788;2023-09-07T06:02:14;6.90;;;4.20;;
9102;SDS011;4587;51.434;6.788;2023-09-07T06:04:40;6.90;;;4.20;;
9102;SDS011;4587;51.434;6.788;2023-09-07T06:07:05;6.97;;;4.40;;
9102;SDS011;4587;51.434;6.788;2023-09-07T06:09:31;5.80;;;4.07;;
9102;SDS011;4587;51.434;6.788;2023-09-07T06:11:56;6.67;;;4.27;;
9102;SDS011;4587;51.434;6.788;2023-09-07T06:14:22;12.07;;;4.30;;
9102;SDS011;4587;51.434;6.788;2023-09-07T06:16:48;5.30;;;4.20;;
9102;SDS011;4587;51.434;6.788;2023-09-07T06:19:13;5.23;;;4.33;;
9102;SDS011;4587;51.434;6.788;2023-09-07T06:21:39;8.07;;;4.17;;
9102;SDS011;4587;51.434;6.788;2023-09-07T06:24:04;7.37;;;5.10;;
9102;SDS011;4587;51.434;6.788;2023-09-07T06:26:31;8.40;;;5.07;;
9102;SDS011;4587;51.434;6.788;2023-09-07T06:28:57;6.13;;;4.60;;
9102;SDS011;4587;51.434;6.788;2023-09-07T06:31:23;11.20;;;4.73;;
9102;SDS011;4587;51.434;6.788;2023-09-07T06:33:48;5.07;;;3.90;;
9102;SDS011;4587;51.434;6.788;2023-09-07T06:36:14;6.37;;;4.10;;
9102;SDS011;4587;51.434;6.788;2023-09-07T06:38:39;5.37;;;4.13;;
9102;SDS011;4587;51.434;6.788;2023-09-07T06:41:05;7.60;;;4.53;;
9102;SDS011;4587;51.434;6.788;2023-09-07T06:43:32;11.60;;;4.30;;
9102;SDS011;4587;51.434;6.788;2023-09-07T06:46:02;10.87;;;3.90;;
9102;SDS011;4587;51.434;6.788;2023-09-07T06:48:31;9.67;;;3.67;;
9102;SDS011;4587;51.434;6.788;2023-09-07T06:51:00;5.23;;;4.10;;
9102;SDS011;4587;51.434;6.788;2023-09-07T06:53:30;7.50;;;3.80;;
9102;SDS011;4587;51.434;6.788;2023-09-07T06:56:02;6.90;;;3.70;;
9102;SDS011;4587;51.434;6.788;2023-09-07T06:58:29;6.05;;;3.45;;
9102;SDS011;4587;51.434;6.788;2023-09-07T07:00:58;6.43;;;3.75;;
9102;SDS011;4587;51.434;6.788;2023-09-07T07:03:27;5.25;;;3.75;;
9102;SDS011;4587;51.434;6.788;2023-09-07T07:05:53;6.70;;;3.90;;
9102;SDS011;4587;51.434;6.788;2023-09-07T07:08:19;5.63;;;3.33;;
9102;SDS011;4587;51.434;6.788;2023-09-07T07:10:45;6.78;;;3.80;;
9102;SDS011;4587;51.434;6.788;2023-09-07T07:13:10;6.55;;;3.33;;
9102;SDS011;4587;51.434;6.788;2023-09-07T07:15:36;8.30;;;3.70;;
9102;SDS011;4587;51.434;6.788;2023-09-07T07:18:02;8.05;;;3.30;;
9102;SDS011;4587;51.434;6.788;2023-09-07T07:20:33;7.40;;;3.58;;
9102;SDS011;4587;51.434;6.788;2023-09-07T07:23:04;3.85;;;3.30;;
9102;SDS011;4587;51.434;6.788;2023-09-07T07:25:31;6.68;;;3.40;;
9102;SDS011;4587;51.434;6.788;2023-09-07T07:27:58;8.73;;;3.17;;
9102;SDS011;4587;51.434;6.788;2023-09-07T07:30:26;7.15;;;3.42;;
9102;SDS011;4587;51.434;6.788;2023-09-07T07:32:54;9.05;;;3.50;;
9102;SDS011;4587;51.434;6.788;2023-09-07T07:35:19;9.05;;;3.72;;
9102;SDS011;4587;51.434;6.788;2023-09-07T07:37:45;5.22;;;3.33;;
9102;SDS011;4587;51.434;6.788;2023-09-07T07:40:11;6.03;;;3.53;;
9102;SDS011;4587;51.434;6.788;2023-09-07T07:42:36;7.10;;;3.33;;
9102;SDS011;4587;51.434;6.788;2023-09-07T07:45:02;3.85;;;3.28;;
9102;SDS011;4587;51.434;6.788;2023-09-07T07:47:28;5.40;;;3.05;;
9102;SDS011;4587;51.434;6.788;2023-09-07T07:49:53;4.75;;;3.45;;
9102;SDS011;4587;51.434;6.788;2023-09-07T07:52:19;5.50;;;3.30;;
9102;SDS011;4587;51.434;6.788;2023-09-07T07:54:44;4.88;;;3.17;;
9102;SDS011;4587;51.434;6.788;2023-09-07T07:57:10;5.80;;;3.17;;
9102;SDS011;4587;51.434;6.788;2023-09-07T07:59:36;4.60;;;3.20;;
9102;SDS011;4587;51.434;6.788;2023-09-07T08:02:02;5.80;;;3.00;;
9102;SDS011;4587;51.434;6.788;2023-09-07T08:04:28;5.50;;;2.95;;
9102;SDS011;4587;51.434;6.788;2023-09-07T08:06:54;5.15;;;3.08;;
9102;SDS011;4587;51.434;6.788;2023-09-07T08:09:23;5.90;;;3.08;;
9102;SDS011;4587;51.434;6.788;2023-09-07T08:11:48;4.05;;;2.85;;
9102;SDS011;4587;51.434;6.788;2023-09-07T08:14:14;5.75;;;3.20;;
9102;SDS011;4587;51.434;6.788;2023-09-07T08:16:40;8.30;;;3.20;;
9102;SDS011;4587;51.434;6.788;2023-09-07T08:19:05;4.80;;;3.05;;
9102;SDS011;4587;51.434;6.788;2023-09-07T08:21:31;5.30;;;3.20;;
9102;SDS011;4587;51.434;6.788;2023-09-07T08:23:57;3.67;;;2.75;;
9102;SDS011;4587;51.434;6.788;2023-09-07T08:26:22;4.20;;;2.90;;
9102;SDS011;4587;51.434;6.788;2023-09-07T08:28:48;3.83;;;2.75;;
9102;SDS011;4587;51.434;6.788;2023-09-07T08:31:13;4.57;;;3.03;;
9102;SDS011;4587;51.434;6.788;2023-09-07T08:33:46;5.32;;;3.25;;
9102;SDS011;4587;51.434;6.788;2023-09-07T08:36:15;4.82;;;3.10;;
9102;SDS011;4587;51.434;6.788;2023-09-07T08:38:42;4.57;;;2.85;;
9102;SDS011;4587;51.434;6.788;2023-09-07T08:41:08;6.68;;;3.33;;
9102;SDS011;4587;51.434;6.788;2023-09-07T08:43:33;3.83;;;3.42;;
9102;SDS011;4587;51.434;6.788;2023-09-07T08:46:13;4.90;;;3.28;;
9102;SDS011;4587;51.434;6.788;2023-09-07T08:48:40;7.03;;;3.47;;
9102;SDS011;4587;51.434;6.788;2023-09-07T08:51:07;4.43;;;3.50;;
9102;SDS011;4587;51.434;6.788;2023-09-07T08:53:37;4.45;;;3.10;;
9102;SDS011;4587;51.434;6.788;2023-09-07T08:56:04;3.13;;;2.83;;
9102;SDS011;4587;51.434;6.788;2023-09-07T08:58:31;5.55;;;3.22;;
9102;SDS011;4587;51.434;6.788;2023-09-07T09:00:57;6.20;;;3.20;;
9102;SDS011;4587;51.434;6.788;2023-09-07T09:03:22;3.67;;;3.00;;
9102;SDS011;4587;51.434;6.788;2023-09-07T09:05:49;5.43;;;3.10;;
9102;SDS011;4587;51.434;6.788;2023-09-07T09:08:16;7.60;;;3.45;;
9102;SDS011;4587;51.434;6.788;2023-09-07T09:10:45;6.40;;;3.22;;
9102;SDS011;4587;51.434;6.788;2023-09-07T09:13:11;4.20;;;3.10;;
9102;SDS011;4587;51.434;6.788;2023-09-07T09:15:37;4.70;;;3.15;;
9102;SDS011;4587;51.434;6.788;2023-09-07T09:18:09;6.68;;;3.40;;
9102;SDS011;4587;51.434;6.788;2023-09-07T09:20:37;3.97;;;3.55;;
9102;SDS011;4587;51.434;6.788;2023-09-07T09:23:03;3.97;;;3.35;;
9102;SDS011;4587;51.434;6.788;2023-09-07T09:25:30;6.60;;;3.63;;
9102;SDS011;4587;51.434;6.788;2023-09-07T09:27:56;4.90;;;3.28;;
9102;SDS011;4587;51.434;6.788;2023-09-07T09:30:22;10.07;;;3.72;;
9102;SDS011;4587;51.434;6.788;2023-09-07T09:32:48;7.28;;;3.28;;
9102;SDS011;4587;51.434;6.788;2023-09-07T09:35:16;4.30;;;3.38;;
9102;SDS011;4587;51.434;6.788;2023-09-07T09:37:43;4.60;;;3.05;;
9102;SDS011;4587;51.434;6.788;2023-09-07T09:40:09;3.97;;;3.40;;
9102;SDS011;4587;51.434;6.788;2023-09-07T09:42:36;5.00;;;3.30;;
9102;SDS011;4587;51.434;6.788;2023-09-07T09:45:03;6.53;;;3.55;;
9102;SDS011;4587;51.434;6.788;2023-09-07T09:47:31;3.72;;;3.10;;
9102;SDS011;4587;51.434;6.788;2023-09-07T09:49:58;3.83;;;3.20;;
9102;SDS011;4587;51.434;6.788;2023-09-07T09:52:31;4.35;;;3.05;;
9102;SDS011;4587;51.434;6.788;2023-09-07T09:54:58;5.30;;;3.47;;
9102;SDS011;4587;51.434;6.788;2023-09-07T09:57:25;5.78;;;3.30;;
9102;SDS011;4587;51.434;6.788;2023-09-07T09:59:53;5.25;;;3.30;;
9102;SDS011;4587;51.434;6.788;2023-09-07T10:02:20;3.90;;;3.05;;
9102;SDS011;4587;51.434;6.788;2023-09-07T10:04:46;4.38;;;3.60;;
9102;SDS011;4587;51.434;6.788;2023-09-07T10:07:12;6.40;;;3.50;;
9102;SDS011;4587;51.434;6.788;2023-09-07T10:09:38;3.53;;;3.22;;
9102;SDS011;4587;51.434;6.788;2023-09-07T10:12:03;5.28;;;3.40;;
9102;SDS011;4587;51.434;6.788;2023-09-07T10:14:42;5.38;;;3.33;;
9102;SDS011;4587;51.434;6.788;2023-09-07T10:17:10;4.90;;;3.20;;
9102;SDS011;4587;51.434;6.788;2023-09-07T10:19:46;4.53;;;3.00;;
9102;SDS011;4587;51.434;6.788;2023-09-07T10:22:25;4.53;;;2.90;;
9102;SDS011;4587;51.434;6.788;2023-09-07T10:24:57;7.35;;;3.00;;
9102;SDS011;4587;51.434;6.788;2023-09-07T10:27:23;4.05;;;3.20;;
9102;SDS011;4587;51.434;6.788;2023-09-07T10:29:51;4.53;;;3.50;;
9102;SDS011;4587;51.434;6.788;2023-09-07T10:32:17;6.35;;;3.25;;
9102;SDS011;4587;51.434;6.788;2023-09-07T10:34:43;5.88;;;3.45;;
9102;SDS011;4587;51.434;6.788;2023-09-07T10:37:09;5.00;;;3.30;;
9102;SDS011;4587;51.434;6.788;2023-09-07T10:39:37;3.35;;;3.05;;
9102;SDS011;4587;51.434;6.788;2023-09-07T10:42:08;6.03;;;3.10;;
9102;SDS011;4587;51.434;6.788;2023-09-07T10:44:44;5.93;;;3.00;;
9102;SDS011;4587;51.434;6.788;2023-09-07T10:47:10;5.68;;;3.08;;
9102;SDS011;4587;51.434;6.788;2023-09-07T10:49:35;6.57;;;2.95;;
9102;SDS011;4587;51.434;6.788;2023-09-07T10:52:01;3.47;;;3.17;;
9102;SDS011;4587;51.434;6.788;2023-09-07T10:54:29;6.35;;;3.20;;
9102;SDS011;4587;51.434;6.788;2023-09-07T10:56:54;3.38;;;3.00;;
9102;SDS011;4587;51.434;6.788;2023-09-07T10:59:22;6.63;;;3.83;;
9102;SDS011;4587;51.434;6.788;2023-09-07T11:01:48;3.40;;;3.10;;
9102;SDS011;4587;51.434;6.788;2023-09-07T11:04:13;4.38;;;2.97;;
9102;SDS011;4587;51.434;6.788;2023-09-07T11:06:42;4.43;;;3.00;;
9102;SDS011;4587;51.434;6.788;2023-09-07T11:09:08;3.90;;;3.10;;
9102;SDS011;4587;51.434;6.788;2023-09-07T11:11:35;5.28;;;3.00;;
9102;SDS011;4587;51.434;6.788;2023-09-07T11:14:02;6.00;;;3.22;;
9102;SDS011;4587;51.434;6.788;2023-09-07T11:16:28;3.20;;;2.90;;
9102;SDS011;4587;51.434;6.788;2023-09-07T11:18:54;3.45;;;3.13;;
9102;SDS011;4587;51.434;6.788;2023-09-07T11:21:20;4.47;;;3.00;;
9102;SDS011;4587;51.434;6.788;2023-09-07T11:23:46;6.35;;;3.20;;
9102;SDS011;4587;51.434;6.788;2023-09-07T11:26:12;5.72;;;3.35;;
9102;SDS011;4587;51.434;6.788;2023-09-07T11:28:38;4.65;;;3.30;;
9102;SDS011;4587;51.434;6.788;2023-09-07T11:31:06;5.28;;;3.10;;
9102;SDS011;4587;51.434;6.788;2023-09-07T11:33:31;5.18;;;3.10;;
9102;SDS011;4587;51.434;6.788;2023-09-07T11:35:58;4.13;;;2.95;;
9102;SDS011;4587;51.434;6.788;2023-09-07T11:38:28;3.75;;;2.92;;
9102;SDS011;4587;51.434;6.788;2023-09-07T11:40:55;3.38;;;2.97;;
9102;SDS011;4587;51.434;6.788;2023-09-07T11:43:21;3.35;;;2.95;;
9102;SDS011;4587;51.434;6.788;2023-09-07T11:45:47;4.97;;;2.97;;
9102;SDS011;4587;51.434;6.788;2023-09-07T11:48:13;7.00;;;3.40;;
9102;SDS011;4587;51.434;6.788;2023-09-07T11:50:39;3.30;;;3.00;;
9102;SDS011;4587;51.434;6.788;2023-09-07T11:53:05;8.13;;;3.15;;
9102;SDS011;4587;51.434;6.788;2023-09-07T11:55:32;6.30;;;2.97;;
9102;SDS011;4587;51.434;6.788;2023-09-07T11:57:58;4.78;;;3.10;;
9102;SDS011;4587;51.434;6.788;2023-09-07T12:00:24;4.35;;;3.13;;
9102;SDS011;4587;51.434;6.788;2023-09-07T12:02:49;7.60;;;3.03;;
9102;SDS011;4587;51.434;6.788;2023-09-07T12:05:15;3.88;;;3.10;;
9102;SDS011;4587;51.434;6.788;2023-09-07T12:07:41;4.00;;;2.85;;
9102;SDS011;4587;51.434;6.788;2023-09-07T12:10:10;6.38;;;3.10;;
9102;SDS011;4587;51.434;6.788;2023-09-07T12:12:37;4.63;;;3.05;;
9102;SDS011;4587;51.434;6.788;2023-09-07T12:15:03;4.18;;;2.90;;
9102;SDS011;4587;51.434;6.788;2023-09-07T12:17:32;3.53;;;2.60;;
9102;SDS011;4587;51.434;6.788;2023-09-07T12:19:58;5.30;;;2.78;;
9102;SDS011;4587;51.434;6.788;2023-09-07T12:22:25;2.90;;;2.70;;
9102;SDS011;4587;51.434;6.788;2023-09-07T12:24:50;3.35;;;3.05;;
9102;SDS011;4587;51.434;6.788;2023-09-07T12:27:16;4.45;;;3.22;;
9102;SDS011;4587;51.434;6.788;2023-09-07T12:29:41;4.53;;;3.10;;
9102;SDS011;4587;51.434;6.788;2023-09-07T12:32:07;3.50;;;3.00;;
9102;SDS011;4587;51.434;6.788;2023-09-07T12:34:33;5.22;;;3.20;;
9102;SDS011;4587;51.434;6.788;2023-09-07T12:36:58;4.55;;;3.03;;
9102;SDS011;4587;51.434;6.788;2023-09-07T12:39:24;8.07;;;3.35;;
9102;SDS011;4587;51.434;6.788;2023-09-07T12:41:49;7.30;;;3.45;;
9102;SDS011;4587;51.434;6.788;2023-09-07T12:44:15;4.60;;;3.28;;
9102;SDS011;4587;51.434;6.788;2023-09-07T12:46:43;5.38;;;3.15;;
9102;SDS011;4587;51.434;6.788;2023-09-07T12:49:09;4.47;;;3.10;;
9102;SDS011;4587;51.434;6.788;2023-09-07T12:51:35;5.22;;;3.20;;
9102;SDS011;4587;51.434;6.788;2023-09-07T12:54:00;3.88;;;3.13;;
9102;SDS011;4587;51.434;6.788;2023-09-07T12:56:26;3.25;;;2.60;;
9102;SDS011;4587;51.434;6.788;2023-09-07T12:58:52;3.58;;;2.90;;
9102;SDS011;4587;51.434;6.788;2023-09-07T13:01:18;5.15;;;3.13;;
9102;SDS011;4587;51.434;6.788;2023-09-07T13:03:43;4.22;;;3.08;;
9102;SDS011;4587;51.434;6.788;2023-09-07T13:06:09;4.25;;;3.33;;
9102;SDS011;4587;51.434;6.788;2023-09-07T13:08:35;3.53;;;3.22;;
9102;SDS011;4587;51.434;6.788;2023-09-07T13:11:01;3.15;;;2.70;;
9102;SDS011;4587;51.434;6.788;2023-09-07T13:13:26;7.32;;;3.30;;
9102;SDS011;4587;51.434;6.788;2023-09-07T13:15:57;4.03;;;3.33;;
9102;SDS011;4587;51.434;6.788;2023-09-07T13:18:23;3.80;;;3.10;;
9102;SDS011;4587;51.434;6.788;2023-09-07T13:20:49;4.03;;;2.97;;
9102;SDS011;4587;51.434;6.788;2023-09-07T13:23:16;3.65;;;3.20;;
9102;SDS011;4587;51.434;6.788;2023-09-07T13:25:42;5.05;;;3.38;;
9102;SDS011;4587;51.434;6.788;2023-09-07T13:28:08;6.70;;;3.53;;
9102;SDS011;4587;51.434;6.788;2023-09-07T13:30:34;5.22;;;3.40;;
9102;SDS011;4587;51.434;6.788;2023-09-07T13:33:00;3.33;;;3.05;;
9102;SDS011;4587;51.434;6.788;2023-09-07T13:35:26;4.18;;;3.78;;
9102;SDS011;4587;51.434;6.788;2023-09-07T13:37:51;7.18;;;3.30;;
9102;SDS011;4587;51.434;6.788;2023-09-07T13:40:17;3.67;;;3.25;;
9102;SDS011;4587;51.434;6.788;2023-09-07T13:42:44;5.90;;;3.33;;
9102;SDS011;4587;51.434;6.788;2023-09-07T13:45:10;4.07;;;3.40;;
9102;SDS011;4587;51.434;6.788;2023-09-07T13:47:36;3.95;;;3.00;;
9102;SDS011;4587;51.434;6.788;2023-09-07T13:50:02;3.95;;;3.42;;
9102;SDS011;4587;51.434;6.788;2023-09-07T13:52:28;4.38;;;3.47;;
9102;SDS011;4587;51.434;6.788;2023-09-07T13:54:53;4.18;;;3.78;;
9102;SDS011;4587;51.434;6.788;2023-09-07T13:57:19;4.03;;;3.33;;
9102;SDS011;4587;51.434;6.788;2023-09-07T13:59:44;5.13;;;3.78;;
9102;SDS011;4587;51.434;6.788;2023-09-07T14:02:10;4.88;;;3.33;;
9102;SDS011;4587;51.434;6.788;2023-09-07T14:04:35;4.38;;;3.75;;
9102;SDS011;4587;51.434;6.788;2023-09-07T14:07:01;3.92;;;3.53;;
9102;SDS011;4587;51.434;6.788;2023-09-07T14:09:26;5.18;;;3.55;;
9102;SDS011;4587;51.434;6.788;2023-09-07T14:11:52;4.60;;;3.60;;
9102;SDS011;4587;51.434;6.788;2023-09-07T14:14:17;5.85;;;4.05;;
9102;SDS011;4587;51.434;6.788;2023-09-07T14:16:43;4.20;;;3.80;;
9102;SDS011;4587;51.434;6.788;2023-09-07T14:19:09;4.60;;;3.78;;
9102;SDS011;4587;51.434;6.788;2023-09-07T14:21:35;4.00;;;3.70;;
9102;SDS011;4587;51.434;6.788;2023-09-07T14:24:01;5.32;;;3.65;;
9102;SDS011;4587;51.434;6.788;2023-09-07T14:26:28;4.25;;;3.55;;
9102;SDS011;4587;51.434;6.788;2023-09-07T14:28:54;6.20;;;3.70;;
9102;SDS011;4587;51.434;6.788;2023-09-07T14:31:20;5.10;;;3.70;;
9102;SDS011;4587;51.434;6.788;2023-09-07T14:33:45;6.72;;;3.75;;
9102;SDS011;4587;51.434;6.788;2023-09-07T14:36:11;4.30;;;3.55;;
9102;SDS011;4587;51.434;6.788;2023-09-07T14:38:37;4.63;;;4.13;;
9102;SDS011;4587;51.434;6.788;2023-09-07T14:41:06;6.00;;;3.75;;
9102;SDS011;4587;51.434;6.788;2023-09-07T14:43:37;4.60;;;3.85;;
9102;SDS011;4587;51.434;6.788;2023-09-07T14:46:02;4.80;;;4.00;;
9102;SDS011;4587;51.434;6.788;2023-09-07T14:48:28;5.93;;;4.00;;
9102;SDS011;4587;51.434;6.788;2023-09-07T14:50:53;4.55;;;3.65;;
9102;SDS011;4587;51.434;6.788;2023-09-07T14:53:19;6.63;;;3.70;;
9102;SDS011;4587;51.434;6.788;2023-09-07T14:55:44;4.40;;;4.00;;
9102;SDS011;4587;51.434;6.788;2023-09-07T14:58:10;5.50;;;4.07;;
9102;SDS011;4587;51.434;6.788;2023-09-07T15:00:36;7.07;;;4.07;;
9102;SDS011;4587;51.434;6.788;2023-09-07T15:03:01;4.20;;;3.80;;
9102;SDS011;4587;51.434;6.788;2023-09-07T15:05:27;5.35;;;3.30;;
9102;SDS011;4587;51.434;6.788;2023-09-07T15:07:53;4.60;;;3.85;;
9102;SDS011;4587;51.434;6.788;2023-09-07T15:10:19;5.07;;;4.25;;